createdAt,value
2022-08-19T00:01:59.032Z,100134.84
2022-08-19T00:04:34.020Z,100145.91
2022-08-19T00:07:01.820Z,100149.81
2022-08-19T00:09:29.861Z,100146.53
2022-08-19T00:11:58.816Z,100130.31
2022-08-19T00:14:31.229Z,100096.88
2022-08-19T00:16:58.952Z,100034.09
2022-08-19T00:19:26.588Z,99970.31
2022-08-19T00:21:54.442Z,99918.44
2022-08-19T00:24:22.122Z,99921.69
2022-08-19T00:26:49.832Z,99939.81
2022-08-19T00:29:19.846Z,99952.66
2022-08-19T00:31:47.997Z,99924.09
2022-08-19T00:34:18.319Z,99939.38
2022-08-19T00:36:46.057Z,100010.00
2022-08-19T00:39:16.579Z,100077.66
2022-08-19T00:41:48.154Z,100083.81
2022-08-19T00:44:36.570Z,100066.03
2022-08-19T00:47:05.183Z,100069.13
2022-08-19T00:49:41.834Z,100105.63
2022-08-19T00:52:14.071Z,100127.41
2022-08-19T00:54:42.964Z,100141.31
2022-08-19T00:57:14.833Z,100129.59
2022-08-19T00:59:56.123Z,100109.09
2022-08-19T01:02:31.814Z,100127.22
2022-08-19T01:05:02.128Z,100154.84
2022-08-19T01:07:35.704Z,100172.78
2022-08-19T01:10:09.052Z,100196.53
2022-08-19T01:12:37.440Z,100177.25
2022-08-19T01:15:08.225Z,100153.69
2022-08-19T01:17:41.634Z,100137.22
2022-08-19T01:20:17.805Z,100135.97
2022-08-19T01:22:49.972Z,100144.91
2022-08-19T01:25:22.050Z,100156.16
2022-08-19T01:27:53.792Z,100173.25
2022-08-19T01:30:25.920Z,100179.31
2022-08-19T01:32:55.218Z,100167.06
2022-08-19T01:35:26.553Z,100176.16
2022-08-19T01:37:57.925Z,100170.34
2022-08-19T01:40:30.542Z,100149.44
2022-08-19T01:42:58.664Z,100141.59
2022-08-19T01:45:28.739Z,100162.16
2022-08-19T01:48:01.952Z,100185.22
2022-08-19T01:50:31.951Z,100184.88
2022-08-19T01:53:06.192Z,100175.88
2022-08-19T01:55:40.493Z,100167.84
2022-08-19T01:58:14.974Z,100149.44
2022-08-19T02:00:43.490Z,100134.72
2022-08-19T02:03:12.455Z,100114.88
2022-08-19T02:05:41.335Z,100106.09
2022-08-19T02:08:09.564Z,100114.00
2022-08-19T02:10:41.707Z,100118.81
2022-08-19T02:13:09.532Z,100107.19
2022-08-19T02:15:38.960Z,100109.09
2022-08-19T02:18:09.549Z,100113.50
2022-08-19T02:20:38.859Z,100099.22
2022-08-19T02:23:13.480Z,100080.75
2022-08-19T02:25:42.643Z,100068.00
2022-08-19T02:28:10.136Z,100076.03
2022-08-19T02:30:37.767Z,100060.88
2022-08-19T02:33:06.263Z,100047.41
2022-08-19T02:35:33.830Z,100027.91
2022-08-19T02:38:22.157Z,100047.34
2022-08-19T02:40:52.893Z,100078.81
2022-08-19T02:43:21.829Z,100088.75
2022-08-19T02:45:50.893Z,100079.13
2022-08-19T02:48:22.544Z,100079.09
2022-08-19T02:50:56.250Z,100063.56
2022-08-19T02:53:27.314Z,100063.84
2022-08-19T02:55:55.461Z,100074.69
2022-08-19T02:58:26.821Z,100084.72
2022-08-19T03:00:56.306Z,100075.25
2022-08-19T03:03:24.603Z,100068.84
2022-08-19T03:05:56.829Z,100073.41
2022-08-19T03:08:26.620Z,100085.41
2022-08-19T03:10:54.989Z,100092.31
2022-08-19T03:13:25.100Z,100092.53
2022-08-19T03:15:52.652Z,100094.03
2022-08-19T03:18:20.440Z,100097.06
2022-08-19T03:20:53.880Z,100086.53
2022-08-19T03:23:22.616Z,100092.69
2022-08-19T03:25:58.376Z,100098.28
2022-08-19T03:28:33.721Z,100122.28
2022-08-19T03:31:05.193Z,100124.75
2022-08-19T03:33:55.392Z,100134.94
2022-08-19T03:36:25.855Z,100121.44
2022-08-19T03:39:00.169Z,100111.41
2022-08-19T03:41:44.562Z,100111.97
2022-08-19T03:44:19.389Z,100120.16
2022-08-19T03:46:58.273Z,100121.91
2022-08-19T03:49:33.717Z,100140.06
2022-08-19T03:52:01.651Z,100146.03
2022-08-19T03:54:29.785Z,100152.78
2022-08-19T03:56:58.506Z,100166.13
2022-08-19T03:59:36.596Z,100171.31
2022-08-19T04:02:10.190Z,100168.41
2022-08-19T04:04:44.174Z,100165.00
2022-08-19T04:07:16.826Z,100180.88
2022-08-19T04:09:44.530Z,100192.38
2022-08-19T04:12:12.293Z,100201.25
2022-08-19T04:14:46.177Z,100216.47
2022-08-19T04:17:15.093Z,100223.19
2022-08-19T04:19:43.969Z,100244.34
2022-08-19T04:22:12.666Z,100252.41
2022-08-19T04:24:40.301Z,100260.44
2022-08-19T04:27:07.896Z,100262.56
2022-08-19T04:29:35.538Z,100275.00
2022-08-19T04:32:09.193Z,100281.28
2022-08-19T04:35:01.192Z,100282.53
2022-08-19T04:37:35.339Z,100285.59
2022-08-19T04:40:25.633Z,100272.50
2022-08-19T04:42:54.691Z,100264.72
2022-08-19T04:45:22.839Z,100264.22
2022-08-19T04:47:58.729Z,100259.50
2022-08-19T04:50:42.892Z,100259.69
2022-08-19T04:53:11.257Z,100244.78
2022-08-19T04:55:44.097Z,100244.22
2022-08-19T04:58:11.663Z,100231.44
2022-08-19T05:00:41.855Z,100244.63
2022-08-19T05:03:09.663Z,100238.66
2022-08-19T05:05:45.554Z,100223.31
2022-08-19T05:08:15.207Z,100234.44
2022-08-19T05:10:43.229Z,100215.03
2022-08-19T05:13:14.231Z,100197.19
2022-08-19T05:15:44.446Z,100189.69
2022-08-19T05:18:30.750Z,100188.81
2022-08-19T05:21:17.049Z,100178.22
2022-08-19T05:23:45.440Z,100185.66
2022-08-19T05:26:12.999Z,100185.22
2022-08-19T05:28:40.597Z,100188.13
2022-08-19T05:31:08.179Z,100195.31
2022-08-19T05:33:38.549Z,100196.31
2022-08-19T05:36:08.344Z,100209.34
2022-08-19T05:38:36.824Z,100202.97
2022-08-19T05:41:11.555Z,100204.72
2022-08-19T05:43:39.358Z,100216.16
2022-08-19T05:46:07.607Z,100220.41
2022-08-19T05:48:36.343Z,100207.88
2022-08-19T05:51:07.962Z,100212.97
2022-08-19T05:53:36.578Z,100207.97
2022-08-19T05:56:15.720Z,100190.66
2022-08-19T05:58:45.895Z,100179.91
2022-08-19T06:01:17.387Z,100178.00
2022-08-19T06:03:46.041Z,100176.91
2022-08-19T06:06:16.013Z,100172.91
2022-08-19T06:08:46.241Z,100176.09
2022-08-19T06:11:34.873Z,100164.53
2022-08-19T06:14:09.123Z,100153.47
2022-08-19T06:16:45.483Z,100145.00
2022-08-19T06:19:18.211Z,100140.38
2022-08-19T06:21:48.316Z,100137.97
2022-08-19T06:24:19.149Z,100129.19
2022-08-19T06:29:23.752Z,100139.34
2022-08-19T06:31:56.904Z,100148.13
2022-08-19T06:34:26.056Z,100165.06
2022-08-19T06:36:53.794Z,100171.78
2022-08-19T06:39:28.954Z,100171.56
2022-08-19T06:42:12.776Z,100182.38
2022-08-19T06:44:48.096Z,100175.44
2022-08-19T06:47:23.777Z,100184.72
2022-08-19T06:50:05.531Z,100190.66
2022-08-19T06:52:36.765Z,100195.75
2022-08-19T06:55:07.142Z,100210.34
2022-08-19T06:57:35.200Z,100212.78
2022-08-19T07:00:04.834Z,100210.81
2022-08-19T07:02:32.485Z,100212.72
2022-08-19T07:05:03.584Z,100212.69
2022-08-19T07:07:35.093Z,100215.06
2022-08-19T07:10:04.985Z,100223.94
2022-08-19T07:12:35.887Z,100227.72
2022-08-19T07:15:06.815Z,100222.06
2022-08-19T07:17:35.831Z,100239.66
2022-08-19T07:20:05.041Z,100248.00
2022-08-19T07:22:33.723Z,100252.66
2022-08-19T07:25:06.438Z,100252.19
2022-08-19T07:27:34.986Z,100254.69
2022-08-19T07:30:03.693Z,100260.03
2022-08-19T07:32:32.597Z,100262.91
2022-08-19T07:35:01.731Z,100251.56
2022-08-19T07:37:33.011Z,100249.16
2022-08-19T07:40:02.413Z,100249.72
2022-08-19T07:42:30.973Z,100253.13
2022-08-19T07:44:59.741Z,100255.94
2022-08-19T07:47:58.758Z,100252.72
2022-08-19T07:50:16.602Z,100249.22
2022-08-19T07:52:45.751Z,100253.69
2022-08-19T07:55:40.201Z,100254.38
2022-08-19T07:58:09.242Z,100254.09
2022-08-19T08:00:37.089Z,100246.13
2022-08-19T08:03:05.132Z,100241.25
2022-08-19T08:06:06.289Z,100244.88
2022-08-19T08:08:52.782Z,100230.88
2022-08-19T08:11:23.969Z,100226.88
2022-08-19T08:14:01.097Z,100214.72
2022-08-19T08:16:47.269Z,100212.25
2022-08-19T08:19:22.930Z,100202.31
2022-08-19T08:21:57.100Z,100213.03
2022-08-19T08:24:28.464Z,100211.78
2022-08-19T08:26:57.961Z,100215.78
2022-08-19T08:29:34.462Z,100227.75
2022-08-19T08:32:14.208Z,100244.75
2022-08-19T08:34:43.615Z,100254.53
2022-08-19T08:37:11.201Z,100262.22
2022-08-19T08:39:39.084Z,100266.94
2022-08-19T08:42:18.443Z,100283.03
2022-08-19T08:47:23.256Z,100314.44
2022-08-19T08:50:00.505Z,100332.28
2022-08-19T08:52:46.818Z,100336.63
2022-08-19T08:55:21.205Z,100342.47
2022-08-19T08:57:48.672Z,100343.78
2022-08-19T09:00:21.996Z,100342.31
2022-08-19T09:02:50.989Z,100335.06
2022-08-19T09:05:22.724Z,100328.84
2022-08-19T09:08:13.638Z,100319.25
2022-08-19T09:10:55.218Z,100310.75
2022-08-19T09:13:43.200Z,100312.91
2022-08-19T09:16:21.888Z,100304.13
2022-08-19T09:18:59.977Z,100297.38
2022-08-19T09:21:33.119Z,100290.22
2022-08-19T09:24:03.744Z,100294.91
2022-08-19T09:26:47.272Z,100285.94
2022-08-19T09:29:23.029Z,100276.34
2022-08-19T09:31:51.054Z,100262.72
2022-08-19T09:34:22.198Z,100269.69
2022-08-19T09:36:54.511Z,100259.03
2022-08-19T09:39:25.290Z,100245.00
2022-08-19T09:42:04.670Z,100241.44
2022-08-19T09:44:34.794Z,100237.59
2022-08-19T09:47:02.869Z,100230.47
2022-08-19T09:49:30.363Z,100223.53
2022-08-19T09:51:58.981Z,100231.06
2022-08-19T09:54:27.143Z,100216.22
2022-08-19T09:56:55.476Z,100204.63
2022-08-19T09:59:23.021Z,100209.75
2022-08-19T10:01:52.460Z,100199.06
2022-08-19T10:04:22.325Z,100191.84
2022-08-19T10:06:53.685Z,100186.28
2022-08-19T10:09:33.686Z,100191.97
2022-08-19T10:12:04.508Z,100187.09
2022-08-19T10:14:34.179Z,100195.59
2022-08-19T10:17:04.607Z,100206.47
2022-08-19T10:19:55.294Z,100214.66
2022-08-19T10:22:25.524Z,100211.53
2022-08-19T10:24:54.700Z,100214.16
2022-08-19T10:27:22.571Z,100216.66
2022-08-19T10:29:50.308Z,100212.88
2022-08-19T10:32:17.826Z,100227.88
2022-08-19T10:34:48.237Z,100217.69
2022-08-19T10:37:23.763Z,100214.06
2022-08-19T10:39:56.821Z,100214.00
2022-08-19T10:42:24.387Z,100213.50
2022-08-19T10:44:52.187Z,100213.63
2022-08-19T10:47:25.016Z,100204.59
2022-08-19T10:50:13.930Z,100199.75
2022-08-19T10:52:49.924Z,100190.66
2022-08-19T10:55:43.315Z,100198.81
2022-08-19T10:58:15.505Z,100187.22
2022-08-19T11:00:44.844Z,100197.41
2022-08-19T11:03:13.018Z,100195.88
2022-08-19T11:05:41.010Z,100192.09
2022-08-19T11:08:17.690Z,100209.59
2022-08-19T11:10:56.372Z,100211.03
2022-08-19T11:13:24.450Z,100220.28
2022-08-19T11:16:03.839Z,100221.59
2022-08-19T11:18:49.216Z,100226.97
2022-08-19T11:21:24.652Z,100213.63
2022-08-19T11:23:56.545Z,100229.13
2022-08-19T11:26:24.662Z,100220.91
2022-08-19T11:28:55.441Z,100217.22
2022-08-19T11:31:28.837Z,100211.88
2022-08-19T11:33:58.516Z,100226.31
2022-08-19T11:36:26.577Z,100220.75
2022-08-19T11:38:54.656Z,100227.91
2022-08-19T11:41:24.420Z,100220.00
2022-08-19T11:43:56.254Z,100227.53
2022-08-19T11:46:28.037Z,100223.22
2022-08-19T11:48:55.555Z,100234.91
2022-08-19T11:51:25.669Z,100236.31
2022-08-19T11:53:55.572Z,100242.22
2022-08-19T11:56:25.027Z,100236.97
2022-08-19T11:58:53.939Z,100231.28
2022-08-19T12:01:23.955Z,100231.25
2022-08-19T12:03:53.192Z,100232.84
2022-08-19T12:06:29.776Z,100228.81
2022-08-19T12:08:59.603Z,100234.06
2022-08-19T12:11:31.295Z,100241.13
2022-08-19T12:14:02.419Z,100229.16
2022-08-19T12:16:32.864Z,100235.88
2022-08-19T12:19:04.721Z,100228.00
2022-08-19T12:21:35.989Z,100217.09
2022-08-19T12:24:05.411Z,100222.13
2022-08-19T12:26:36.028Z,100215.56
2022-08-19T12:29:23.942Z,100218.78
2022-08-19T12:31:52.305Z,100209.72
2022-08-19T12:34:21.176Z,100205.03
2022-08-19T12:36:50.468Z,100213.47
2022-08-19T12:39:18.528Z,100216.31
2022-08-19T12:41:54.225Z,100205.25
2022-08-19T12:44:28.827Z,100208.59
2022-08-19T12:46:58.199Z,100197.94
2022-08-19T12:49:52.499Z,100199.88
2022-08-19T12:52:16.939Z,100206.53
2022-08-19T12:54:54.619Z,100202.16
2022-08-19T12:57:33.179Z,100197.09
2022-08-19T13:00:13.553Z,100206.25
2022-08-19T13:02:45.227Z,100206.16
2022-08-19T13:05:16.916Z,100203.47
2022-08-19T13:07:47.424Z,100206.47
2022-08-19T13:10:18.818Z,100212.47
2022-08-19T13:12:48.622Z,100203.56
2022-08-19T13:15:23.693Z,100200.53
2022-08-19T13:17:54.840Z,100193.78
2022-08-19T13:20:38.461Z,100185.56
2022-08-19T13:23:05.888Z,100188.88
2022-08-19T13:25:33.435Z,100188.06
2022-08-19T13:28:00.885Z,100194.22
2022-08-19T13:30:47.283Z,100190.69
2022-08-19T13:33:17.385Z,100186.00
2022-08-19T13:35:51.242Z,100190.25
2022-08-19T13:38:24.593Z,100202.09
2022-08-19T13:40:54.088Z,100198.47
2022-08-19T13:43:26.524Z,100198.25
2022-08-19T13:45:57.267Z,100190.97
2022-08-19T13:48:28.106Z,100191.09
2022-08-19T13:50:55.879Z,100195.22
2022-08-19T13:53:23.325Z,100198.34
2022-08-19T13:55:54.690Z,100197.50
2022-08-19T13:58:23.299Z,100195.78
2022-08-19T14:00:50.919Z,100196.06
2022-08-19T14:03:18.410Z,100185.56
2022-08-19T14:05:47.009Z,100175.72
2022-08-19T14:08:15.121Z,100179.66
2022-08-19T14:10:45.353Z,100181.94
2022-08-19T14:13:16.793Z,100181.69
2022-08-19T14:15:44.997Z,100179.97
2022-08-19T14:18:12.723Z,100187.25
2022-08-19T14:20:43.384Z,100182.94
2022-08-19T14:23:11.806Z,100182.47
2022-08-19T14:25:39.336Z,100172.66
2022-08-19T14:28:08.418Z,100172.38
2022-08-19T14:30:38.692Z,100165.59
2022-08-19T14:33:06.958Z,100180.84
2022-08-19T14:35:35.647Z,100169.69
2022-08-19T14:38:06.386Z,100175.72
2022-08-19T14:40:36.134Z,100170.44
2022-08-19T14:43:05.624Z,100175.06
2022-08-19T14:45:36.995Z,100165.53
2022-08-19T14:48:17.815Z,100169.63
2022-08-19T14:50:47.576Z,100178.56
2022-08-19T14:53:17.159Z,100178.56
2022-08-19T14:55:46.796Z,100182.50
2022-08-19T14:58:29.870Z,100179.91
2022-08-19T15:01:00.267Z,100181.47
2022-08-19T15:03:29.367Z,100174.03
2022-08-19T15:05:58.681Z,100167.91
2022-08-19T15:08:27.124Z,100163.75
2022-08-19T15:10:55.464Z,100173.53
2022-08-19T15:13:26.515Z,100169.13
2022-08-19T15:15:54.609Z,100161.41
2022-08-19T15:18:23.178Z,100158.69
2022-08-19T15:20:53.389Z,100165.94
2022-08-19T15:23:21.969Z,100161.31
2022-08-19T15:25:52.991Z,100168.59
2022-08-19T15:28:25.851Z,100167.66
2022-08-19T15:30:53.966Z,100161.78
2022-08-19T15:33:21.617Z,100172.31
2022-08-19T15:35:51.589Z,100168.28
2022-08-19T15:38:22.106Z,100161.28
2022-08-19T15:40:50.374Z,100167.03
2022-08-19T15:43:21.306Z,100168.63
2022-08-19T15:45:49.502Z,100175.13
2022-08-19T15:48:19.437Z,100179.94
2022-08-19T15:50:46.994Z,100182.88
2022-08-19T15:53:14.573Z,100188.25
2022-08-19T15:55:45.696Z,100192.53
2022-08-19T15:58:33.048Z,100187.59
2022-08-19T16:01:24.100Z,100192.72
2022-08-19T16:04:14.662Z,100199.63
2022-08-19T16:06:50.594Z,100204.47
2022-08-19T16:09:27.531Z,100200.09
2022-08-19T16:12:06.252Z,100201.22
2022-08-19T16:14:35.911Z,100193.69
2022-08-19T16:17:04.461Z,100197.31
2022-08-19T16:19:33.343Z,100201.81
2022-08-19T16:22:01.030Z,100194.47
2022-08-19T16:24:29.319Z,100195.63
2022-08-19T16:27:01.685Z,100196.50
2022-08-19T16:29:34.845Z,100190.34
2022-08-19T16:32:10.572Z,100205.88
2022-08-19T16:34:40.523Z,100198.50
2022-08-19T16:37:08.427Z,100206.38
2022-08-19T16:39:36.475Z,100203.09
2022-08-19T16:42:07.438Z,100193.41
2022-08-19T16:44:36.776Z,100188.81
2022-08-19T16:47:04.857Z,100192.31
2022-08-19T16:49:54.254Z,100193.91
2022-08-19T16:52:28.567Z,100191.91
2022-08-19T16:54:58.409Z,100188.50
2022-08-19T16:57:26.015Z,100191.19
2022-08-19T16:59:53.599Z,100191.44
2022-08-19T17:02:23.572Z,100192.19
2022-08-19T17:04:59.252Z,100195.41
2022-08-19T17:07:27.940Z,100203.09
2022-08-19T17:09:56.556Z,100197.75
2022-08-19T17:12:31.877Z,100202.41
2022-08-19T17:15:04.038Z,100189.28
2022-08-19T17:17:31.937Z,100183.84
2022-08-19T17:20:01.208Z,100188.91
2022-08-19T17:22:29.707Z,100194.19
2022-08-19T17:24:58.262Z,100202.88
2022-08-19T17:27:31.413Z,100200.41
2022-08-19T17:30:02.487Z,100204.38
2022-08-19T17:32:34.333Z,100213.84
2022-08-19T17:35:04.687Z,100211.81
2022-08-19T17:37:32.766Z,100220.97
2022-08-19T17:40:04.723Z,100225.44
2022-08-19T17:42:32.453Z,100227.28
2022-08-19T17:45:00.288Z,100224.38
2022-08-19T17:47:29.439Z,100226.88
2022-08-19T17:49:58.687Z,100235.66
2022-08-19T17:52:26.410Z,100242.63
2022-08-19T17:54:56.520Z,100252.81
2022-08-19T17:57:24.463Z,100257.34
2022-08-19T17:59:52.704Z,100258.91
2022-08-19T18:02:21.982Z,100268.72
2022-08-19T18:04:50.169Z,100263.25
2022-08-19T18:07:21.712Z,100267.63
2022-08-19T18:09:52.527Z,100271.56
2022-08-19T18:12:26.683Z,100273.69
2022-08-19T18:14:54.338Z,100278.50
2022-08-19T18:17:23.619Z,100274.66
2022-08-19T18:19:51.620Z,100281.47
2022-08-19T18:22:37.599Z,100289.06
2022-08-19T18:25:10.220Z,100286.25
2022-08-19T18:27:38.049Z,100279.22
2022-08-19T18:30:07.071Z,100290.97
2022-08-19T18:32:38.391Z,100294.50
2022-08-19T18:35:11.053Z,100283.88
2022-08-19T18:37:42.098Z,100289.41
2022-08-19T18:40:34.047Z,100285.88
2022-08-19T18:43:19.848Z,100295.25
2022-08-19T18:46:07.147Z,100297.19
2022-08-19T18:48:54.693Z,100293.50
2022-08-19T18:51:28.150Z,100300.19
2022-08-19T18:53:58.684Z,100308.22
2022-08-19T18:56:32.227Z,100306.22
2022-08-19T18:59:00.433Z,100312.63
2022-08-19T19:01:34.261Z,100316.59
2022-08-19T19:04:07.851Z,100318.31
2022-08-19T19:06:40.419Z,100326.78
2022-08-19T19:09:13.853Z,100329.44
2022-08-19T19:11:44.367Z,100319.41
2022-08-19T19:14:27.669Z,100316.75
2022-08-19T19:17:08.653Z,100306.41
2022-08-19T19:19:36.365Z,100315.72
2022-08-19T19:22:06.065Z,100321.06
2022-08-19T19:24:33.891Z,100316.59
2022-08-19T19:27:07.468Z,100312.50
2022-08-19T19:29:39.331Z,100311.91
2022-08-19T19:32:20.968Z,100314.16
2022-08-19T19:34:49.084Z,100326.44
2022-08-19T19:37:17.362Z,100337.28
2022-08-19T19:39:47.543Z,100322.56
2022-08-19T19:42:22.739Z,100315.19
2022-08-19T19:44:55.822Z,100321.06
2022-08-19T19:47:24.610Z,100319.19
2022-08-19T19:52:40.897Z,100326.75
2022-08-19T19:55:09.763Z,100335.88
2022-08-19T19:57:39.349Z,100344.09
2022-08-19T20:00:09.286Z,100340.56
2022-08-19T20:02:38.089Z,100344.78
2022-08-19T20:05:06.369Z,100342.28
2022-08-19T20:07:52.863Z,100360.47
2022-08-19T20:10:20.497Z,100350.66
2022-08-19T20:12:52.029Z,100347.34
2022-08-19T20:15:19.665Z,100350.97
2022-08-19T20:17:47.713Z,100350.75
2022-08-19T20:20:17.934Z,100347.06
2022-08-19T20:22:47.541Z,100353.59
2022-08-19T20:25:17.936Z,100346.28
2022-08-19T20:27:53.680Z,100352.56
2022-08-19T20:30:46.447Z,100360.75
2022-08-19T20:33:16.416Z,100349.75
2022-08-19T20:35:47.001Z,100351.41
2022-08-19T20:38:17.159Z,100353.31
2022-08-19T20:40:44.920Z,100343.69
2022-08-19T20:43:13.979Z,100338.16
2022-08-19T20:45:41.834Z,100350.22
2022-08-19T20:48:12.365Z,100354.50
2022-08-19T20:50:40.569Z,100350.38
2022-08-19T20:53:13.664Z,100341.41
2022-08-19T20:55:44.681Z,100355.34
2022-08-19T20:58:14.802Z,100348.81
2022-08-19T21:00:49.116Z,100346.63
2022-08-19T21:03:19.945Z,100358.47
2022-08-19T21:05:48.214Z,100359.34
2022-08-19T21:08:18.579Z,100352.09
2022-08-19T21:10:48.020Z,100354.53
2022-08-19T21:13:20.038Z,100347.94
2022-08-19T21:15:48.775Z,100365.06
2022-08-19T21:18:22.202Z,100355.66
2022-08-19T21:20:50.742Z,100352.03
2022-08-19T21:23:22.051Z,100347.09
2022-08-19T21:25:56.034Z,100357.91
2022-08-19T21:28:34.339Z,100357.22
2022-08-19T21:31:06.641Z,100363.75
2022-08-19T21:33:34.255Z,100355.34
2022-08-19T21:36:04.836Z,100371.22
2022-08-19T21:38:33.573Z,100374.19
2022-08-19T21:41:05.884Z,100366.75
2022-08-19T21:43:37.988Z,100365.47
2022-08-19T21:46:07.243Z,100357.41
2022-08-19T21:48:38.050Z,100362.09
2022-08-19T21:51:06.076Z,100354.19
2022-08-19T21:53:34.419Z,100352.97
2022-08-19T21:56:06.592Z,100367.75
2022-08-19T21:58:36.516Z,100358.78
2022-08-19T22:01:07.892Z,100351.78
2022-08-19T22:03:38.138Z,100350.28
2022-08-19T22:06:06.688Z,100358.28
2022-08-19T22:08:34.249Z,100356.59
2022-08-19T22:11:07.877Z,100367.66
2022-08-19T22:13:40.576Z,100366.00
2022-08-19T22:16:09.832Z,100366.06
2022-08-19T22:18:37.704Z,100371.66
2022-08-19T22:21:11.323Z,100374.78
2022-08-19T22:23:42.075Z,100380.50
2022-08-19T22:26:10.270Z,100381.09
2022-08-19T22:28:38.410Z,100375.00
2022-08-19T22:31:09.252Z,100380.63
2022-08-19T22:33:37.495Z,100374.59
2022-08-19T22:36:07.787Z,100373.66
2022-08-19T22:38:36.553Z,100381.78
2022-08-19T22:41:07.535Z,100388.59
2022-08-19T22:43:38.691Z,100388.59
2022-08-19T22:49:01.070Z,100389.56
2022-08-19T22:51:51.706Z,100389.16
2022-08-19T22:54:19.499Z,100381.66
2022-08-19T22:56:51.979Z,100385.06
2022-08-19T22:59:23.091Z,100397.47
2022-08-19T23:01:53.788Z,100394.94
2022-08-19T23:04:22.955Z,100381.38
2022-08-19T23:06:53.081Z,100373.53
2022-08-19T23:09:23.500Z,100386.06
2022-08-19T23:11:53.210Z,100386.69
2022-08-19T23:14:23.647Z,100372.50
2022-08-19T23:16:58.374Z,100372.94
2022-08-19T23:19:26.963Z,100386.22
2022-08-19T23:21:54.730Z,100386.22
2022-08-19T23:24:22.565Z,100382.03
2022-08-19T23:27:09.045Z,100372.56
2022-08-19T23:29:55.337Z,100373.53
2022-08-19T23:32:29.236Z,100369.19
2022-08-19T23:34:59.811Z,100365.72
2022-08-19T23:37:29.662Z,100369.03
2022-08-19T23:39:57.528Z,100364.19
2022-08-19T23:42:25.658Z,100378.00
2022-08-19T23:44:53.483Z,100381.25
2022-08-19T23:47:21.946Z,100370.69
2022-08-19T23:49:50.945Z,100372.75
2022-08-19T23:52:20.249Z,100373.88
2022-08-19T23:54:49.150Z,100371.63
2022-08-19T23:57:16.886Z,100367.88
2022-08-19T23:59:45.772Z,100371.75
